createdAt,value
2022-10-26T00:04:34.451Z,11.2
2022-10-26T00:06:30.202Z,11.2
2022-10-26T00:08:31.208Z,11.2
2022-10-26T00:10:31.610Z,11.3
2022-10-26T00:14:31.191Z,11.3
2022-10-26T00:16:30.848Z,11.4
2022-10-26T00:18:30.601Z,11.4
2022-10-26T00:20:30.936Z,11.4
2022-10-26T00:22:31.449Z,11.4
2022-10-26T00:24:40.534Z,11.3
2022-10-26T00:26:30.882Z,11.3
2022-10-26T00:30:31.195Z,11.3
2022-10-26T00:32:31.280Z,11.3
2022-10-26T00:34:31.262Z,11.3
2022-10-26T00:36:32.885Z,11.2
2022-10-26T00:38:30.899Z,11.2
2022-10-26T00:40:31.130Z,11.2
2022-10-26T00:42:30.332Z,11.2
2022-10-26T00:44:37.644Z,11.2
2022-10-26T00:46:30.846Z,11.2
2022-10-26T00:48:31.220Z,11.3
2022-10-26T00:50:30.904Z,11.2
2022-10-26T00:52:31.094Z,11.2
2022-10-26T00:54:33.779Z,11.2
2022-10-26T00:56:34.150Z,11.2
2022-10-26T00:58:30.901Z,11.1
2022-10-26T01:02:31.237Z,11.1
2022-10-26T01:04:28.663Z,11
2022-10-26T01:06:30.997Z,11
2022-10-26T01:08:32.899Z,11
2022-10-26T01:10:31.270Z,11.1
2022-10-26T01:12:34.558Z,11
2022-10-26T01:14:33.744Z,11
2022-10-26T01:16:30.777Z,11.1
2022-10-26T01:18:30.538Z,11.2
2022-10-26T01:20:30.978Z,11.2
2022-10-26T01:22:31.440Z,11.2
2022-10-26T01:24:30.954Z,11.3
2022-10-26T01:26:30.831Z,11.2
2022-10-26T01:28:29.839Z,11.2
2022-10-26T01:30:32.840Z,11.2
2022-10-26T01:32:32.881Z,11.1
2022-10-26T01:34:30.870Z,11.1
2022-10-26T01:38:30.438Z,11.1
2022-10-26T01:42:31.310Z,11.1
2022-10-26T01:44:31.245Z,11.1
2022-10-26T01:46:31.324Z,11
2022-10-26T01:48:30.218Z,11
2022-10-26T01:50:37.947Z,11
2022-10-26T01:52:30.805Z,11
2022-10-26T01:54:31.147Z,11.1
2022-10-26T01:56:30.664Z,11.1
2022-10-26T01:58:30.825Z,11
2022-10-26T02:02:30.690Z,11
2022-10-26T02:04:31.033Z,10.9
2022-10-26T02:08:31.164Z,10.8
2022-10-26T02:10:30.958Z,10.9
2022-10-26T02:14:31.125Z,10.9
2022-10-26T02:16:30.908Z,10.9
2022-10-26T02:18:31.466Z,10.8
2022-10-26T02:20:29.880Z,10.8
2022-10-26T02:22:30.757Z,10.8
2022-10-26T02:24:30.924Z,10.9
2022-10-26T02:28:27.996Z,11
2022-10-26T02:34:30.932Z,11
2022-10-26T02:36:31.035Z,10.9
2022-10-26T02:38:30.644Z,11
2022-10-26T02:40:32.529Z,11
2022-10-26T02:42:34.159Z,11.1
2022-10-26T02:46:32.571Z,10.9
2022-10-26T02:52:30.942Z,10.9
2022-10-26T02:54:31.008Z,10.9
2022-10-26T02:56:31.026Z,10.9
2022-10-26T02:58:27.224Z,10.9
2022-10-26T03:00:31.333Z,10.9
2022-10-26T03:02:30.926Z,10.8
2022-10-26T03:06:37.616Z,10.7
2022-10-26T03:08:30.801Z,10.6
2022-10-26T03:10:31.129Z,10.6
2022-10-26T03:12:31.077Z,10.6
2022-10-26T03:14:32.606Z,10.5
2022-10-26T03:16:30.942Z,10.6
2022-10-26T03:18:31.053Z,10.6
2022-10-26T03:20:30.431Z,10.6
2022-10-26T03:22:29.556Z,10.7
2022-10-26T03:24:38.344Z,10.6
2022-10-26T03:26:31.008Z,10.7
2022-10-26T03:28:30.778Z,10.7
2022-10-26T03:32:37.618Z,10.9
2022-10-26T03:34:34.094Z,10.9
2022-10-26T03:36:34.563Z,10.8
2022-10-26T03:38:30.966Z,10.8
2022-10-26T03:40:31.011Z,10.9
2022-10-26T03:42:34.103Z,10.8
2022-10-26T03:44:30.959Z,10.9
2022-10-26T03:46:33.909Z,10.8
2022-10-26T03:48:31.219Z,10.7
2022-10-26T03:50:30.957Z,10.7
2022-10-26T03:52:32.530Z,10.7
2022-10-26T03:54:30.914Z,10.8
2022-10-26T03:56:30.967Z,10.8
2022-10-26T03:58:34.200Z,10.8
2022-10-26T04:00:30.755Z,10.8
2022-10-26T04:02:31.015Z,10.8
2022-10-26T04:04:33.915Z,10.8
2022-10-26T04:06:30.743Z,10.8
2022-10-26T04:08:34.138Z,10.8
2022-10-26T04:10:28.091Z,10.8
2022-10-26T04:12:34.151Z,10.8
2022-10-26T04:14:30.759Z,10.8
2022-10-26T04:16:33.901Z,10.9
2022-10-26T04:18:30.918Z,10.9
2022-10-26T04:20:30.980Z,10.8
2022-10-26T04:22:29.812Z,10.8
2022-10-26T04:24:30.924Z,10.8
2022-10-26T04:26:31.627Z,10.8
2022-10-26T04:28:31.245Z,10.9
2022-10-26T04:30:31.153Z,10.9
2022-10-26T04:32:30.697Z,10.9
2022-10-26T04:34:32.725Z,11
2022-10-26T04:36:30.878Z,11
2022-10-26T04:38:31.242Z,11
2022-10-26T04:40:31.138Z,10.8
2022-10-26T04:42:31.262Z,10.8
2022-10-26T04:44:37.700Z,10.9
2022-10-26T04:46:36.178Z,10.8
2022-10-26T04:48:30.824Z,10.9
2022-10-26T04:50:31.013Z,10.9
2022-10-26T04:52:31.085Z,10.9
2022-10-26T04:54:31.055Z,10.9
2022-10-26T04:56:31.087Z,10.9
2022-10-26T04:58:29.276Z,10.9
2022-10-26T05:00:34.422Z,10.9
2022-10-26T05:02:31.217Z,10.9
2022-10-26T05:04:32.483Z,10.9
2022-10-26T05:06:34.595Z,10.9
2022-10-26T05:08:33.805Z,10.9
2022-10-26T05:10:34.067Z,10.9
2022-10-26T05:12:30.806Z,10.9
2022-10-26T05:14:38.038Z,10.8
2022-10-26T05:16:34.052Z,10.8
2022-10-26T05:18:30.985Z,10.9
2022-10-26T05:20:34.123Z,10.8
2022-10-26T05:22:29.801Z,10.9
2022-10-26T05:24:30.538Z,10.9
2022-10-26T05:26:31.052Z,11
2022-10-26T05:28:31.050Z,11
2022-10-26T05:32:31.558Z,11.1
2022-10-26T05:34:36.219Z,11
2022-10-26T05:36:37.944Z,11
2022-10-26T05:38:30.566Z,11.1
2022-10-26T05:40:31.186Z,11.1
2022-10-26T05:42:31.169Z,11.3
2022-10-26T05:46:30.880Z,11
2022-10-26T05:50:31.321Z,10.9
2022-10-26T05:52:31.075Z,11
2022-10-26T05:56:30.989Z,10.9
2022-10-26T06:00:32.640Z,10.9
2022-10-26T06:04:31.364Z,11.1
2022-10-26T06:06:30.995Z,11.1
2022-10-26T06:08:30.995Z,11.2
2022-10-26T06:10:34.139Z,11.3
2022-10-26T06:12:30.946Z,11.3
2022-10-26T06:14:30.779Z,11.3
2022-10-26T06:16:29.570Z,11.3
2022-10-26T06:18:30.938Z,11.4
2022-10-26T06:20:31.147Z,11.3
2022-10-26T06:22:31.055Z,11.5
2022-10-26T06:28:34.333Z,11.6
2022-10-26T06:32:29.816Z,11.6
2022-10-26T06:34:31.120Z,11.8
2022-10-26T06:36:31.136Z,11.7
2022-10-26T06:38:33.925Z,11.7
2022-10-26T06:40:30.914Z,11.6
2022-10-26T06:42:31.372Z,11.5
2022-10-26T06:44:32.447Z,11.5
2022-10-26T06:46:29.723Z,11.6
2022-10-26T06:48:31.008Z,11.6
2022-10-26T06:50:37.531Z,11.6
2022-10-26T06:52:34.183Z,11.6
2022-10-26T06:54:33.866Z,11.6
2022-10-26T06:56:29.854Z,11.7
2022-10-26T06:58:31.258Z,11.7
2022-10-26T07:02:34.292Z,11.8
2022-10-26T07:04:31.009Z,11.9
2022-10-26T07:08:30.473Z,12
2022-10-26T07:10:30.952Z,12
2022-10-26T07:14:32.706Z,12.2
2022-10-26T07:16:30.941Z,12.3
2022-10-26T07:18:34.578Z,12.4
2022-10-26T07:20:30.971Z,12.5
2022-10-26T07:22:31.003Z,12.7
2022-10-26T07:24:31.018Z,12.8
2022-10-26T07:26:34.333Z,12.9
2022-10-26T07:28:31.328Z,12.8
2022-10-26T07:30:30.194Z,13.6
2022-10-26T07:32:32.660Z,13.3
2022-10-26T07:34:31.141Z,12.7
2022-10-26T07:36:30.702Z,12.6
2022-10-26T07:38:29.684Z,12.7
2022-10-26T07:40:34.056Z,13.4
2022-10-26T07:42:31.112Z,14.2
2022-10-26T07:44:30.995Z,14.2
2022-10-26T07:46:31.051Z,14.3
2022-10-26T07:48:31.150Z,14.4
2022-10-26T07:50:33.893Z,14.5
2022-10-26T07:52:31.018Z,14.5
2022-10-26T07:54:31.651Z,14.5
2022-10-26T07:56:30.969Z,14.3
2022-10-26T07:58:34.143Z,14.2
2022-10-26T08:00:34.159Z,14.4
2022-10-26T08:02:31.521Z,14.6
2022-10-26T08:04:34.198Z,14.6
2022-10-26T08:06:30.587Z,14.6
2022-10-26T08:08:34.126Z,14
2022-10-26T08:10:31.102Z,13.8
2022-10-26T08:12:34.210Z,13.8
2022-10-26T08:16:31.219Z,13.7
2022-10-26T08:20:30.695Z,13.6
2022-10-26T08:22:30.318Z,13.5
2022-10-26T08:24:31.059Z,13.6
2022-10-26T08:26:31.303Z,13.4
2022-10-26T08:28:31.355Z,13.3
2022-10-26T08:30:37.850Z,13.3
2022-10-26T08:32:52.064Z,13.3
2022-10-26T08:39:27.527Z,13.4
2022-10-26T08:41:26.716Z,13.4
2022-10-26T08:48:31.269Z,13.8
2022-10-26T08:50:30.970Z,14
2022-10-26T08:55:02.131Z,14.1
2022-10-26T08:58:05.111Z,14.5
2022-10-26T09:00:33.363Z,14.7
2022-10-26T09:03:19.256Z,14.8
2022-10-26T09:05:19.643Z,14.8
2022-10-26T09:07:17.620Z,14.8
2022-10-26T09:13:14.097Z,14.9
2022-10-26T09:17:16.979Z,15
2022-10-26T09:19:07.200Z,15
2022-10-26T09:28:21.541Z,15.2
2022-10-26T09:35:47.116Z,15.2
2022-10-26T09:43:16.232Z,15.2
2022-10-26T09:45:18.426Z,15.3
2022-10-26T09:47:19.319Z,15.3
2022-10-26T09:49:19.656Z,15.3
2022-10-26T09:51:14.357Z,15.4
2022-10-26T09:53:16.783Z,15.4
2022-10-26T09:55:15.721Z,15.5
2022-10-26T09:57:19.287Z,15.5
2022-10-26T09:59:19.320Z,15.5
2022-10-26T10:01:18.276Z,15.5
2022-10-26T10:03:18.881Z,15.5
2022-10-26T10:05:23.120Z,15.5
2022-10-26T10:07:16.760Z,15.5
2022-10-26T10:09:19.278Z,15.5
2022-10-26T10:11:17.786Z,15.5
2022-10-26T10:13:17.674Z,15.5
2022-10-26T10:15:14.392Z,15.5
2022-10-26T10:19:20.090Z,15.5
2022-10-26T10:21:17.941Z,15.5
2022-10-26T10:23:15.856Z,15.5
2022-10-26T10:25:19.978Z,15.5
2022-10-26T10:27:18.032Z,15.5
2022-10-26T10:29:15.924Z,15.5
2022-10-26T10:33:23.594Z,15.5
2022-10-26T10:35:18.865Z,15.5
2022-10-26T10:37:16.213Z,15.5
2022-10-26T10:39:15.969Z,15.5
2022-10-26T10:41:15.452Z,15.5
2022-10-26T10:43:20.156Z,15.5
2022-10-26T10:45:17.419Z,15.5
2022-10-26T10:47:20.609Z,15.5
2022-10-26T10:49:14.573Z,15.5
2022-10-26T10:51:13.666Z,15.5
2022-10-26T10:53:16.958Z,15.5
2022-10-26T10:55:16.907Z,15.5
2022-10-26T10:57:18.260Z,15.5
2022-10-26T10:59:23.052Z,15.5
2022-10-26T11:01:17.295Z,15.5
2022-10-26T11:03:16.455Z,15.5
2022-10-26T11:05:21.926Z,15.5
2022-10-26T11:07:20.419Z,15.5
2022-10-26T11:09:16.578Z,15.5
2022-10-26T11:11:15.249Z,15.5
2022-10-26T11:13:13.373Z,15.5
2022-10-26T11:15:16.955Z,15.5
2022-10-26T11:17:18.645Z,15.5
2022-10-26T11:19:17.516Z,15.5
2022-10-26T11:21:13.703Z,15.6
2022-10-26T11:23:17.909Z,15.6
2022-10-26T11:25:16.716Z,15.6
2022-10-26T11:27:19.370Z,15.6
2022-10-26T11:29:13.456Z,15.7
2022-10-26T11:31:19.221Z,15.7
2022-10-26T11:33:13.477Z,15.7
2022-10-26T11:35:16.262Z,15.8
2022-10-26T11:37:13.471Z,15.8
2022-10-26T11:39:13.483Z,15.9
2022-10-26T11:41:18.087Z,15.9
2022-10-26T11:43:17.663Z,15.9
2022-10-26T11:45:16.816Z,15.9
2022-10-26T11:47:19.856Z,16
2022-10-26T11:49:23.577Z,16
2022-10-26T11:51:18.688Z,16
2022-10-26T11:53:13.605Z,16
2022-10-26T11:55:18.073Z,16
2022-10-26T11:57:16.674Z,16
2022-10-26T11:59:15.840Z,16
2022-10-26T12:01:16.548Z,16
2022-10-26T12:03:19.514Z,16.1
2022-10-26T12:05:18.031Z,16.2
2022-10-26T12:07:17.596Z,16.2
2022-10-26T12:09:18.692Z,16.2
2022-10-26T12:11:13.718Z,16.2
2022-10-26T12:13:17.513Z,16.3
2022-10-26T12:15:19.550Z,16.3
2022-10-26T12:17:17.761Z,16.3
2022-10-26T12:19:18.545Z,16.3
2022-10-26T12:21:20.502Z,16.3
2022-10-26T12:23:28.041Z,16.3
2022-10-26T12:25:15.063Z,16.3
2022-10-26T12:27:17.746Z,16.3
2022-10-26T12:29:13.882Z,16.3
2022-10-26T12:31:13.874Z,16.3
2022-10-26T12:33:20.021Z,16.3
2022-10-26T12:35:20.844Z,16.3
2022-10-26T12:37:13.911Z,16.3
2022-10-26T12:39:20.720Z,16.4
2022-10-26T12:41:16.444Z,16.4
2022-10-26T12:43:13.986Z,16.5
2022-10-26T12:45:13.982Z,16.5
2022-10-26T12:47:20.815Z,16.5
2022-10-26T12:49:14.016Z,16.5
2022-10-26T12:51:16.218Z,16.5
2022-10-26T12:53:17.998Z,16.5
2022-10-26T12:55:14.111Z,16.5
2022-10-26T12:57:18.103Z,16.5
2022-10-26T12:59:14.110Z,16.5
2022-10-26T13:01:14.221Z,16.6
2022-10-26T13:03:14.226Z,16.6
2022-10-26T13:05:20.831Z,16.6
2022-10-26T13:07:18.173Z,16.6
2022-10-26T13:09:19.768Z,16.6
2022-10-26T13:11:17.758Z,16.7
2022-10-26T13:13:18.174Z,16.8
2022-10-26T13:15:14.304Z,16.8
2022-10-26T13:17:20.895Z,16.8
2022-10-26T13:19:17.753Z,16.8
2022-10-26T13:21:20.466Z,16.9
2022-10-26T13:23:14.668Z,16.9
2022-10-26T13:25:18.116Z,16.9
2022-10-26T13:27:14.398Z,16.9
2022-10-26T13:29:18.289Z,16.9
2022-10-26T13:31:18.188Z,16.9
2022-10-26T13:33:14.789Z,16.9
2022-10-26T13:35:16.537Z,16.9
2022-10-26T13:37:17.885Z,16.9
2022-10-26T13:39:14.552Z,16.9
2022-10-26T13:41:21.002Z,16.9
2022-10-26T13:43:17.389Z,16.9
2022-10-26T13:45:17.405Z,16.9
2022-10-26T13:47:14.654Z,16.9
2022-10-26T13:49:14.743Z,16.9
2022-10-26T13:51:21.542Z,16.8
2022-10-26T13:53:17.004Z,16.8
2022-10-26T13:55:17.950Z,16.9
2022-10-26T13:57:17.260Z,16.9
2022-10-26T13:59:14.885Z,16.9
2022-10-26T14:01:14.870Z,16.9
2022-10-26T14:03:18.572Z,16.9
2022-10-26T14:05:20.395Z,16.8
2022-10-26T14:07:14.908Z,16.8
2022-10-26T14:09:17.469Z,16.8
2022-10-26T14:11:17.997Z,16.8
2022-10-26T14:13:14.995Z,16.8
2022-10-26T14:15:17.811Z,16.8
2022-10-26T14:17:18.683Z,16.8
2022-10-26T14:19:15.085Z,16.8
2022-10-26T14:21:15.060Z,16.8
2022-10-26T14:23:17.903Z,16.8
2022-10-26T14:25:20.951Z,16.8
2022-10-26T14:27:17.675Z,16.9
2022-10-26T14:29:20.626Z,16.9
2022-10-26T14:31:16.632Z,16.9
2022-10-26T14:35:19.254Z,16.9
2022-10-26T14:37:22.024Z,16.9
2022-10-26T14:39:22.040Z,16.9
2022-10-26T14:41:22.150Z,16.9
2022-10-26T14:43:17.634Z,16.9
2022-10-26T14:45:15.276Z,16.9
2022-10-26T14:47:18.254Z,16.9
2022-10-26T14:49:20.594Z,16.9
2022-10-26T14:51:15.075Z,16.8
2022-10-26T14:53:15.085Z,16.8
2022-10-26T14:55:16.370Z,16.8
2022-10-26T14:57:18.819Z,16.8
2022-10-26T14:59:15.049Z,16.8
2022-10-26T15:01:18.538Z,16.8
2022-10-26T15:03:15.120Z,16.8
2022-10-26T15:05:15.111Z,16.8
2022-10-26T15:07:16.363Z,16.8
2022-10-26T15:09:15.118Z,16.7
2022-10-26T15:11:19.739Z,16.7
2022-10-26T15:13:18.688Z,16.7
2022-10-26T15:15:15.198Z,16.6
2022-10-26T15:17:18.845Z,16.6
2022-10-26T15:19:15.079Z,16.6
2022-10-26T15:21:15.126Z,16.6
2022-10-26T15:23:15.773Z,16.6
2022-10-26T15:25:20.937Z,16.6
2022-10-26T15:27:15.101Z,16.6
2022-10-26T15:29:18.389Z,16.6
2022-10-26T15:31:20.822Z,16.6
2022-10-26T15:33:18.996Z,16.6
2022-10-26T15:37:18.862Z,16.6
2022-10-26T15:39:21.304Z,16.6
2022-10-26T15:41:21.114Z,16.5
2022-10-26T15:43:18.830Z,16.5
2022-10-26T15:45:18.408Z,16.5
2022-10-26T15:47:15.097Z,16.5
2022-10-26T15:49:15.128Z,16.5
2022-10-26T15:51:18.337Z,16.5
2022-10-26T15:53:20.449Z,16.5
2022-10-26T15:55:21.955Z,16.5
2022-10-26T15:57:16.547Z,16.4
2022-10-26T15:59:17.395Z,16.4
2022-10-26T16:03:18.471Z,16.4
2022-10-26T16:05:20.464Z,16.4
2022-10-26T16:07:15.144Z,16.4
2022-10-26T16:09:15.118Z,16.4
2022-10-26T16:11:21.320Z,16.4
2022-10-26T16:13:18.596Z,16.4
2022-10-26T16:15:19.160Z,16.4
2022-10-26T16:17:18.279Z,16.4
2022-10-26T16:19:30.161Z,16.2
2022-10-26T16:21:21.500Z,16.2
2022-10-26T16:23:22.059Z,16.3
2022-10-26T16:25:15.133Z,16.2
2022-10-26T16:27:18.637Z,16.3
2022-10-26T16:29:19.972Z,16.4
2022-10-26T16:31:25.070Z,16.4
2022-10-26T16:33:15.242Z,16.4
2022-10-26T16:35:15.279Z,16.4
2022-10-26T16:37:17.996Z,16.2
2022-10-26T16:39:18.841Z,16.1
2022-10-26T16:41:17.406Z,15.8
2022-10-26T16:43:22.029Z,15.7
2022-10-26T16:45:25.228Z,15.5
2022-10-26T16:49:15.169Z,15.6
2022-10-26T16:51:25.418Z,15.6
2022-10-26T16:53:22.420Z,15.5
2022-10-26T16:55:18.843Z,15.4
2022-10-26T16:57:21.767Z,15.4
2022-10-26T16:59:21.652Z,15.2
2022-10-26T17:01:24.790Z,15.4
2022-10-26T17:03:20.557Z,15.3
2022-10-26T17:05:19.073Z,15.3
2022-10-26T17:07:20.049Z,15.3
2022-10-26T17:09:19.249Z,15.3
2022-10-26T17:11:16.890Z,15.3
2022-10-26T17:13:22.092Z,15.5
2022-10-26T17:15:19.658Z,15.5
2022-10-26T17:17:15.172Z,15.5
2022-10-26T17:19:15.202Z,15.5
2022-10-26T17:21:21.043Z,15.5
2022-10-26T17:23:15.165Z,15.3
2022-10-26T17:25:19.571Z,14.9
2022-10-26T17:27:15.182Z,14.9
2022-10-26T17:29:17.398Z,14.8
2022-10-26T17:31:17.320Z,15
2022-10-26T17:33:15.164Z,15
2022-10-26T17:35:15.154Z,15
2022-10-26T17:37:18.310Z,14.9
2022-10-26T17:39:15.254Z,14.9
2022-10-26T17:41:18.275Z,14.9
2022-10-26T17:43:18.404Z,14.9
2022-10-26T17:45:15.181Z,14.9
2022-10-26T17:47:17.318Z,14.8
2022-10-26T17:49:20.468Z,14.6
2022-10-26T17:51:18.422Z,14.3
2022-10-26T17:53:15.201Z,14.4
2022-10-26T17:55:18.870Z,14.6
2022-10-26T17:57:21.576Z,14.8
2022-10-26T17:59:21.930Z,14.8
2022-10-26T18:01:15.278Z,14.9
2022-10-26T18:03:18.692Z,14.8
2022-10-26T18:05:18.666Z,14.7
2022-10-26T18:07:19.818Z,14.5
2022-10-26T18:09:15.503Z,14.4
2022-10-26T18:11:21.512Z,14.1
2022-10-26T18:13:20.707Z,14.1
2022-10-26T18:15:22.300Z,14.1
2022-10-26T18:17:21.994Z,14.3
2022-10-26T18:19:17.394Z,14.1
2022-10-26T18:21:15.140Z,14.1
2022-10-26T18:23:15.144Z,13.9
2022-10-26T18:25:15.211Z,14.2
2022-10-26T18:27:18.892Z,14.4
2022-10-26T18:29:18.520Z,14.4
2022-10-26T18:31:18.850Z,14.3
2022-10-26T18:33:21.054Z,14.3
2022-10-26T18:35:15.168Z,14.2
2022-10-26T18:37:25.235Z,14.2
2022-10-26T18:39:22.191Z,14.3
2022-10-26T18:41:18.445Z,14.4
2022-10-26T18:43:23.605Z,14.5
2022-10-26T18:45:16.976Z,14.4
2022-10-26T18:49:18.370Z,14.2
2022-10-26T18:51:15.150Z,14.3
2022-10-26T18:53:21.757Z,14.3
2022-10-26T18:55:15.173Z,14.3
2022-10-26T18:57:18.492Z,14.4
2022-10-26T18:59:18.948Z,14.4
2022-10-26T19:01:21.941Z,14.5
2022-10-26T19:03:15.207Z,14.4
2022-10-26T19:05:15.216Z,14.3
2022-10-26T19:07:18.560Z,14.3
2022-10-26T19:09:21.661Z,14.3
2022-10-26T19:11:16.217Z,14.2
2022-10-26T19:13:18.882Z,14.1
2022-10-26T19:15:15.186Z,14
2022-10-26T19:17:18.923Z,14
2022-10-26T19:19:15.168Z,14
2022-10-26T19:21:17.695Z,14
2022-10-26T19:23:23.221Z,13.9
2022-10-26T19:25:18.031Z,13.9
2022-10-26T19:27:15.296Z,13.8
2022-10-26T19:29:17.973Z,13.8
2022-10-26T19:31:16.184Z,14.1
2022-10-26T19:33:18.974Z,13.9
2022-10-26T19:35:15.196Z,13.8
2022-10-26T19:37:15.241Z,13.8
2022-10-26T19:39:19.300Z,13.7
2022-10-26T19:41:15.342Z,13.6
2022-10-26T19:43:15.237Z,13.7
2022-10-26T19:45:15.226Z,13.6
2022-10-26T19:47:18.889Z,13.8
2022-10-26T19:49:15.182Z,13.9
2022-10-26T19:51:15.759Z,13.9
2022-10-26T19:53:22.074Z,13.9
2022-10-26T19:55:18.449Z,14
2022-10-26T19:57:16.452Z,14
2022-10-26T19:59:15.189Z,13.8
2022-10-26T20:01:17.356Z,13.8
2022-10-26T20:03:21.806Z,13.9
2022-10-26T20:05:22.161Z,13.9
2022-10-26T20:07:20.668Z,14
2022-10-26T20:09:18.959Z,13.9
2022-10-26T20:11:15.726Z,13.9
2022-10-26T20:13:21.898Z,13.8
2022-10-26T20:15:22.519Z,13.7
2022-10-26T20:17:16.472Z,13.6
2022-10-26T20:19:18.527Z,13.6
2022-10-26T20:21:15.242Z,13.6
2022-10-26T20:23:15.158Z,13.5
2022-10-26T20:25:22.568Z,13.6
2022-10-26T20:27:15.210Z,13.6
2022-10-26T20:29:22.191Z,13.6
2022-10-26T20:31:21.452Z,13.5
2022-10-26T20:33:19.074Z,13.5
2022-10-26T20:35:25.185Z,13.4
2022-10-26T20:37:15.194Z,13.4
2022-10-26T20:39:18.429Z,13.4
2022-10-26T20:41:15.184Z,13.5
2022-10-26T20:43:15.243Z,13.5
2022-10-26T20:45:17.448Z,13.4
2022-10-26T20:47:19.129Z,13.3
2022-10-26T20:49:18.939Z,13.4
2022-10-26T20:51:23.620Z,13.6
2022-10-26T20:53:22.068Z,13.6
2022-10-26T20:55:15.234Z,13.4
2022-10-26T20:57:15.164Z,13.3
2022-10-26T20:59:18.973Z,13.3
2022-10-26T21:01:15.443Z,13.3
2022-10-26T21:03:15.162Z,13.3
2022-10-26T21:05:15.189Z,13.3
2022-10-26T21:07:20.941Z,13.2
2022-10-26T21:09:15.261Z,13
2022-10-26T21:11:18.921Z,13.1
2022-10-26T21:13:21.665Z,13.2
2022-10-26T21:15:19.673Z,13.1
2022-10-26T21:17:15.180Z,13
2022-10-26T21:19:15.225Z,12.9
2022-10-26T21:21:16.981Z,13
2022-10-26T21:23:22.057Z,12.9
2022-10-26T21:25:15.210Z,13
2022-10-26T21:27:18.340Z,13
2022-10-26T21:31:15.224Z,13.1
2022-10-26T21:33:15.210Z,13
2022-10-26T21:35:15.278Z,12.7
2022-10-26T21:37:18.788Z,12.3
2022-10-26T21:39:15.311Z,12.1
2022-10-26T21:43:15.195Z,12.5
2022-10-26T21:45:15.197Z,12.6
2022-10-26T21:47:18.873Z,12.6
2022-10-26T21:49:15.227Z,12.4
2022-10-26T21:51:17.100Z,12.3
2022-10-26T21:53:18.941Z,12.3
2022-10-26T21:55:15.369Z,12.3
2022-10-26T21:57:15.221Z,12.4
2022-10-26T21:59:17.489Z,12.4
2022-10-26T22:01:15.385Z,12.6
2022-10-26T22:03:18.878Z,12.9
2022-10-26T22:05:19.080Z,12.9
2022-10-26T22:07:18.909Z,12.9
2022-10-26T22:09:18.930Z,12.9
2022-10-26T22:11:22.080Z,12.8
2022-10-26T22:13:15.201Z,12.6
2022-10-26T22:15:15.224Z,12.4
2022-10-26T22:17:15.303Z,12.2
2022-10-26T22:19:22.238Z,12
2022-10-26T22:21:18.845Z,11.9
2022-10-26T22:23:18.131Z,11.9
2022-10-26T22:25:19.395Z,12.1
2022-10-26T22:27:19.215Z,12.3
2022-10-26T22:29:15.234Z,12.3
2022-10-26T22:31:21.850Z,12.4
2022-10-26T22:33:18.930Z,12.4
2022-10-26T22:37:17.720Z,12.3
2022-10-26T22:39:15.243Z,12.2
2022-10-26T22:41:15.244Z,12.2
2022-10-26T22:43:20.094Z,12.3
2022-10-26T22:45:15.238Z,12.3
2022-10-26T22:47:19.736Z,12.2
2022-10-26T22:49:15.231Z,12.1
2022-10-26T22:51:21.004Z,12
2022-10-26T22:53:15.286Z,11.8
2022-10-26T22:55:15.237Z,11.7
2022-10-26T22:57:17.430Z,11.6
2022-10-26T22:59:15.242Z,11.6
2022-10-26T23:01:18.888Z,11.5
2022-10-26T23:03:19.055Z,11.5
2022-10-26T23:05:15.224Z,11.4
2022-10-26T23:07:23.117Z,11.4
2022-10-26T23:09:19.024Z,11.3
2022-10-26T23:11:15.204Z,11.3
2022-10-26T23:13:18.955Z,11.5
2022-10-26T23:15:17.858Z,11.4
2022-10-26T23:17:15.209Z,11.4
2022-10-26T23:19:21.482Z,11.5
2022-10-26T23:21:15.249Z,11.5
2022-10-26T23:23:15.301Z,11.6
2022-10-26T23:25:15.252Z,11.5
2022-10-26T23:27:15.311Z,11.5
2022-10-26T23:31:15.383Z,11.3
2022-10-26T23:33:15.197Z,11.2
2022-10-26T23:35:18.990Z,11.3
2022-10-26T23:37:15.604Z,11.2
2022-10-26T23:39:15.298Z,11.4
2022-10-26T23:41:15.216Z,11.3
2022-10-26T23:43:15.219Z,11.4
2022-10-26T23:45:15.193Z,11.5
2022-10-26T23:47:15.206Z,11.6
2022-10-26T23:49:15.336Z,11.7
2022-10-26T23:51:15.231Z,11.5
2022-10-26T23:55:15.248Z,11.6
2022-10-26T23:57:15.209Z,11.5
2022-10-26T23:59:15.297Z,11.5
